Time;durP1;ratioP1;P1;durP2;ratioP2;P2;SDS_P1;SDS_P2;PMS_P1;PMS_P2;Temp;Humidity;BMP_temperature;BMP_pressure;BME280_temperature;BME280_humidity;BME280_pressure;Samples;Min_cycle;Max_cycle;Signal;HPM_P1;HPM_P2
2022/03/11 00:00:47;;;;;;;23.67;2.60;;;;;;;22.00;52.41;100657.38;7310944;19;158360;-41
2022/03/11 00:03:13;;;;;;;30.23;2.93;;;;;;;21.95;53.13;100659.50;7311433;19;158423;-40
2022/03/11 00:05:39;;;;;;;10.70;1.60;;;;;;;21.86;53.19;100665.47;7310947;19;129406;-41
2022/03/11 00:08:05;;;;;;;42.97;4.38;;;;;;;21.77;53.00;100669.59;7309595;19;129218;-40
2022/03/11 00:10:30;;;;;;;19.67;2.20;;;;;;;21.69;53.81;100666.69;7313030;19;129630;-41
2022/03/11 00:12:56;;;;;;;28.95;3.08;;;;;;;21.64;53.88;100675.81;7311172;19;133781;-41
2022/03/11 00:15:21;;;;;;;47.80;4.68;;;;;;;21.57;53.55;100664.13;7309067;19;129479;-38
2022/03/11 00:17:47;;;;;;;24.60;2.78;;;;;;;21.51;54.70;100662.81;7308457;19;145171;-39
2022/03/11 00:20:12;;;;;;;26.63;2.95;;;;;;;21.46;54.41;100657.09;7310379;19;129584;-41
2022/03/11 00:22:37;;;;;;;21.02;2.30;;;;;;;21.43;54.83;100657.31;7313206;19;141486;-39
2022/03/11 00:25:03;;;;;;;49.85;4.90;;;;;;;21.37;55.23;100656.94;7310270;19;134244;-41
2022/03/11 00:27:28;;;;;;;31.27;3.30;;;;;;;21.31;55.37;100657.38;7307178;19;129029;-41
2022/03/11 00:29:54;;;;;;;26.33;2.95;;;;;;;21.28;55.42;100653.22;7308081;19;158267;-40
2022/03/11 00:32:19;;;;;;;26.67;2.83;;;;;;;21.25;55.98;100652.59;7313313;19;130401;-41
2022/03/11 00:34:44;;;;;;;17.70;2.23;;;;;;;21.21;56.17;100658.97;7307771;19;155548;-41
2022/03/11 00:37:09;;;;;;;29.02;2.97;;;;;;;21.23;56.45;100651.88;7308574;19;154155;-40
2022/03/11 00:39:34;;;;;;;63.47;6.07;;;;;;;21.21;56.28;100657.22;7302771;19;158546;-41
2022/03/11 00:42:00;;;;;;;28.33;2.97;;;;;;;21.23;56.44;100650.09;7300797;19;159167;-40
2022/03/11 00:44:25;;;;;;;32.78;3.45;;;;;;;21.23;56.21;100654.47;7310527;19;143246;-41
2022/03/11 00:46:50;;;;;;;29.40;2.95;;;;;;;21.25;56.57;100648.22;7311553;19;129840;-41
2022/03/11 00:49:16;;;;;;;24.40;2.53;;;;;;;21.27;57.08;100654.13;7308234;19;157505;-39
2022/03/11 00:51:41;;;;;;;22.25;2.25;;;;;;;21.27;57.09;100645.47;7312008;19;157517;-41
2022/03/11 00:54:06;;;;;;;25.58;2.53;;;;;;;21.30;56.95;100648.72;7309831;19;141666;-40
2022/03/11 00:56:31;;;;;;;45.83;4.43;;;;;;;21.32;56.29;100638.94;7308822;19;134249;-41
2022/03/11 00:58:57;;;;;;;22.83;2.47;;;;;;;21.28;57.32;100634.06;7306934;19;150109;-40
2022/03/11 01:01:22;;;;;;;23.30;2.75;;;;;;;21.18;56.75;100640.91;7310672;19;130444;-39
2022/03/11 01:03:49;;;;;;;29.70;3.17;;;;;;;21.19;55.75;100632.94;7311558;19;129534;-41
2022/03/11 01:06:14;;;;;;;29.30;3.05;;;;;;;21.23;55.58;100628.34;7308128;19;129680;-40
2022/03/11 01:08:40;;;;;;;24.25;2.50;;;;;;;21.24;55.15;100620.38;7306683;19;158339;-41
2022/03/11 01:11:08;;;;;;;23.70;2.53;;;;;;;21.44;54.24;100624.13;7309343;19;158719;-41
2022/03/11 01:13:34;;;;;;;38.17;3.63;;;;;;;21.58;54.07;100624.78;7309651;19;129780;-39
2022/03/11 01:15:59;;;;;;;72.03;6.40;;;;;;;21.72;53.63;100629.81;7306512;19;129958;-41
2022/03/11 01:18:24;;;;;;;22.30;2.67;;;;;;;21.88;52.74;100617.25;7308862;19;146514;-40
2022/03/11 01:20:49;;;;;;;71.97;6.68;;;;;;;22.02;52.77;100618.00;7308374;19;158992;-41
2022/03/11 01:23:15;;;;;;;19.80;2.03;;;;;;;22.18;51.96;100621.13;7307203;19;138125;-41
2022/03/11 01:25:42;;;;;;;39.00;3.80;;;;;;;22.24;51.78;100612.78;7308375;19;154347;-41
2022/03/11 01:28:07;;;;;;;24.77;2.42;;;;;;;22.22;51.59;100610.28;7308581;19;130684;-40
2022/03/11 01:30:32;;;;;;;40.17;4.10;;;;;;;22.17;51.95;100595.84;7308192;19;158809;-41
2022/03/11 01:32:57;;;;;;;49.00;4.43;;;;;;;22.07;52.21;100594.91;7304367;19;154487;-40
2022/03/11 01:35:23;;;;;;;57.95;5.50;;;;;;;22.04;52.56;100596.00;7304950;19;154824;-41
2022/03/11 01:37:48;;;;;;;18.93;2.40;;;;;;;21.95;52.80;100587.03;7312271;19;159318;-41
2022/03/11 01:40:13;;;;;;;25.73;2.63;;;;;;;21.89;52.94;100600.63;7315988;19;157910;-40
2022/03/11 01:42:39;;;;;;;22.60;2.47;;;;;;;21.72;52.85;100582.69;7314570;19;154621;-41
2022/03/11 01:45:05;;;;;;;33.97;3.17;;;;;;;21.73;53.33;100597.44;7313321;19;129126;-41
2022/03/11 01:47:30;;;;;;;16.33;1.92;;;;;;;21.65;53.75;100586.72;7315780;19;129904;-40
2022/03/11 01:49:56;;;;;;;31.50;3.33;;;;;;;21.60;53.77;100590.66;7316803;19;141994;-39
2022/03/11 01:52:21;;;;;;;36.13;3.70;;;;;;;21.51;54.14;100584.34;7316145;19;133078;-41
2022/03/11 01:54:47;;;;;;;27.80;2.83;;;;;;;21.41;54.12;100574.66;7314586;19;129462;-40
2022/03/11 01:57:13;;;;;;;22.73;2.63;;;;;;;21.39;54.67;100577.38;7315396;19;130174;-41
2022/03/11 01:59:39;;;;;;;23.45;2.55;;;;;;;21.33;54.76;100577.84;7312873;19;130876;-41
2022/03/11 02:02:06;;;;;;;24.93;2.73;;;;;;;21.30;55.46;100572.03;7317320;19;131112;-41
2022/03/11 02:04:31;;;;;;;46.30;4.53;;;;;;;21.25;55.71;100574.97;7316175;19;129635;-40
2022/03/11 02:06:57;;;;;;;34.60;3.38;;;;;;;21.24;55.78;100577.69;7312560;19;157936;-40
2022/03/11 02:09:22;;;;;;;40.72;3.88;;;;;;;21.18;56.03;100573.75;7313191;19;129810;-41
2022/03/11 02:11:47;;;;;;;14.23;2.08;;;;;;;21.19;56.15;100574.59;7317490;19;154716;-41
2022/03/11 02:14:13;;;;;;;37.28;3.83;;;;;;;21.17;56.05;100572.06;7310773;19;153417;-36
2022/03/11 02:16:40;;;;;;;23.25;2.38;;;;;;;21.16;56.56;100575.66;7314036;19;130635;-40
2022/03/11 02:19:05;;;;;;;29.25;3.05;;;;;;;21.15;56.79;100574.00;7313741;19;130910;-40
2022/03/11 02:21:43;;;;;;;43.92;4.47;;;;;;;21.13;55.95;100573.25;7312061;19;130080;-40
2022/03/11 02:24:12;;;;;;;27.85;2.83;;;;;;;21.21;55.21;100570.91;7316602;19;128805;-40
2022/03/11 02:26:38;;;;;;;28.88;3.35;;;;;;;21.32;55.00;100577.97;7315059;19;130605;-39
2022/03/11 02:29:04;;;;;;;31.38;2.97;;;;;;;21.44;54.36;100572.66;7313348;19;130981;-41
2022/03/11 02:31:31;;;;;;;30.45;3.08;;;;;;;21.57;54.28;100565.53;7312173;19;129139;-40
2022/03/11 02:33:57;;;;;;;29.63;3.03;;;;;;;21.64;53.21;100551.06;7315958;19;129251;-42
2022/03/11 02:36:23;;;;;;;26.63;2.97;;;;;;;21.85;53.30;100565.13;7315654;19;130176;-41
2022/03/11 02:38:49;;;;;;;57.63;5.78;;;;;;;21.92;52.76;100545.41;7310435;19;131182;-37
2022/03/11 02:41:14;;;;;;;29.08;3.00;;;;;;;22.20;51.96;100558.94;7310659;19;129920;-41
2022/03/11 02:43:43;;;;;;;21.48;2.25;;;;;;;22.28;52.07;100546.91;7310536;19;128853;-40
2022/03/11 02:46:09;;;;;;;28.65;2.95;;;;;;;22.38;51.39;100547.03;7314582;19;130163;-40
2022/03/11 02:48:35;;;;;;;23.47;2.43;;;;;;;22.31;51.49;100545.84;7312045;19;130298;-41
2022/03/11 02:51:00;;;;;;;34.97;3.47;;;;;;;22.28;51.62;100540.88;7315720;19;130679;-40
2022/03/11 02:53:26;;;;;;;38.78;3.30;;;;;;;22.20;51.89;100548.47;7314306;19;130817;-41
2022/03/11 02:55:51;;;;;;;27.85;2.83;;;;;;;22.13;52.12;100544.69;7311893;19;129177;-41
2022/03/11 02:58:16;;;;;;;34.25;3.22;;;;;;;22.04;51.99;100543.63;7313128;19;129494;-41
2022/03/11 03:00:42;;;;;;;21.67;2.50;;;;;;;21.84;52.53;100516.38;7309621;19;155299;-40
2022/03/11 03:03:07;;;;;;;21.23;2.38;;;;;;;21.86;52.99;100540.66;7316193;19;139822;-40
2022/03/11 03:05:32;;;;;;;24.52;2.55;;;;;;;21.78;52.81;100558.69;7313289;19;131385;-40
2022/03/11 03:07:57;;;;;;;23.65;2.67;;;;;;;21.71;53.10;100541.78;7314216;19;147323;-41
2022/03/11 03:10:23;;;;;;;47.92;4.57;;;;;;;21.59;53.30;100541.88;7311444;19;135259;-41
2022/03/11 03:12:48;;;;;;;29.73;2.90;;;;;;;21.57;54.34;100544.59;7315282;19;129099;-40
2022/03/11 03:15:14;;;;;;;58.33;5.50;;;;;;;21.52;54.25;100543.28;7307841;19;158352;-41
2022/03/11 03:17:40;;;;;;;18.13;2.38;;;;;;;21.44;54.69;100549.09;7314508;19;129728;-41
2022/03/11 03:20:07;;;;;;;40.83;3.75;;;;;;;21.37;55.02;100542.66;7312007;19;130050;-41
2022/03/11 03:22:33;;;;;;;20.00;2.20;;;;;;;21.32;54.63;100544.78;7314107;19;129239;-40
2022/03/11 03:24:58;;;;;;;27.85;2.75;;;;;;;21.30;55.00;100545.88;7313717;19;129292;-41
2022/03/11 03:27:23;;;;;;;31.02;3.22;;;;;;;21.25;55.63;100543.59;7312343;19;130586;-40
2022/03/11 03:29:49;;;;;;;57.00;5.53;;;;;;;21.25;55.56;100542.75;7310493;19;151615;-40
2022/03/11 03:32:14;;;;;;;24.87;2.63;;;;;;;21.21;55.86;100536.91;7311511;19;154231;-42
2022/03/11 03:34:39;;;;;;;19.20;2.25;;;;;;;21.20;56.18;100535.25;7312273;19;130076;-41
2022/03/11 03:37:08;;;;;;;47.05;4.47;;;;;;;21.20;56.31;100527.41;7308885;19;156459;-41
2022/03/11 03:39:34;;;;;;;20.20;2.03;;;;;;;21.20;55.50;100540.50;7309625;19;129144;-39
2022/03/11 03:41:59;;;;;;;16.92;2.03;;;;;;;21.24;55.81;100535.84;7314697;19;129427;-41
2022/03/11 03:44:25;;;;;;;36.90;3.85;;;;;;;21.28;54.77;100525.06;7310832;19;156037;-40
2022/03/11 03:46:50;;;;;;;32.70;3.28;;;;;;;21.40;54.76;100526.72;7313411;19;129315;-41
2022/03/11 03:49:15;;;;;;;27.17;2.83;;;;;;;21.49;54.29;100520.81;7310934;19;129355;-39
2022/03/11 03:51:42;;;;;;;25.00;2.63;;;;;;;21.70;53.90;100519.16;7312868;19;154656;-40
2022/03/11 03:54:11;;;;;;;30.20;3.23;;;;;;;21.92;53.21;100529.69;7310250;19;132671;-38
2022/03/11 03:56:38;;;;;;;28.20;2.72;;;;;;;22.21;52.51;100534.44;7314719;19;130820;-41
2022/03/11 03:59:08;;;;;;;25.40;2.72;;;;;;;22.46;51.86;100534.16;7311204;19;130157;-40
2022/03/11 04:01:39;;;;;;;19.17;2.22;;;;;;;22.71;51.12;100523.41;7313055;19;130718;-41
2022/03/11 04:04:06;;;;;;;33.28;3.30;;;;;;;22.92;49.96;100537.38;7312804;19;129865;-40
2022/03/11 04:06:32;;;;;;;23.02;2.47;;;;;;;23.06;49.74;100545.78;7309681;19;129283;-40
2022/03/11 04:08:58;;;;;;;24.17;2.40;;;;;;;23.19;49.57;100532.47;7310129;19;129143;-40
2022/03/11 04:11:24;;;;;;;25.20;2.70;;;;;;;23.28;49.23;100525.66;7312697;19;129100;-40
2022/03/11 04:13:50;;;;;;;47.77;4.53;;;;;;;23.39;48.61;100526.44;7312041;19;130036;-40
2022/03/11 04:16:16;;;;;;;44.60;4.40;;;;;;;23.51;48.66;100528.03;7311267;19;130440;-40
2022/03/11 04:18:41;;;;;;;26.58;2.47;;;;;;;23.47;48.57;100507.44;7312056;19;129737;-40
2022/03/11 04:21:06;;;;;;;45.80;4.45;;;;;;;23.62;47.96;100537.63;7309977;19;152917;-38
2022/03/11 04:23:31;;;;;;;19.98;2.38;;;;;;;23.59;48.25;100520.34;7312249;19;158109;-41
2022/03/11 04:25:57;;;;;;;29.13;2.80;;;;;;;23.79;47.51;100518.63;7309549;19;158394;-40
2022/03/11 04:28:22;;;;;;;33.65;3.45;;;;;;;23.83;48.00;100526.13;7305252;19;155193;-41
2022/03/11 04:30:47;;;;;;;24.30;2.50;;;;;;;23.87;47.63;100511.78;7310752;19;154068;-41
2022/03/11 04:33:13;;;;;;;21.20;2.17;;;;;;;23.90;47.49;100511.50;7312308;19;158621;-41
2022/03/11 04:35:38;;;;;;;31.58;3.08;;;;;;;23.98;47.74;100530.09;7307923;19;130349;-40
2022/03/11 04:38:03;;;;;;;22.40;2.28;;;;;;;24.03;46.86;100512.13;7301883;19;155342;-39
2022/03/11 04:40:28;;;;;;;28.17;3.17;;;;;;;24.08;46.93;100520.44;7310433;19;154042;-39
2022/03/11 04:42:54;;;;;;;25.75;2.83;;;;;;;24.09;47.07;100519.50;7311337;19;133437;-40
2022/03/11 04:45:19;;;;;;;44.47;4.43;;;;;;;24.12;47.11;100513.97;7309993;19;130723;-40
2022/03/11 04:47:45;;;;;;;29.10;3.05;;;;;;;24.16;47.08;100517.16;7308512;19;129712;-41
2022/03/11 04:50:10;;;;;;;25.90;2.70;;;;;;;24.22;46.55;100512.22;7312326;19;130015;-41
2022/03/11 04:52:36;;;;;;;22.27;2.17;;;;;;;24.18;47.19;100531.00;7306950;19;130154;-39
2022/03/11 04:55:02;;;;;;;31.80;3.22;;;;;;;24.07;47.06;100510.91;7308562;19;130275;-42
2022/03/11 04:57:28;;;;;;;34.97;3.22;;;;;;;23.94;47.51;100507.66;7310540;19;129017;-39
2022/03/11 04:59:53;;;;;;;48.05;4.65;;;;;;;23.79;47.87;100498.47;7308615;19;129120;-37
2022/03/11 05:02:27;;;;;;;23.75;2.38;;;;;;;23.64;48.30;100499.78;7310033;19;130717;-41
2022/03/11 05:04:54;;;;;;;31.60;3.17;;;;;;;23.51;48.68;100511.44;7308788;19;157434;-39
2022/03/11 05:07:19;;;;;;;20.08;2.25;;;;;;;23.35;49.25;100509.31;7311147;19;129442;-41
2022/03/11 05:09:45;;;;;;;41.70;3.87;;;;;;;23.19;49.56;100503.63;7307894;19;129179;-41
2022/03/11 05:12:11;;;;;;;26.70;2.67;;;;;;;23.02;50.06;100517.31;7309929;19;130332;-41
2022/03/11 05:14:37;;;;;;;6.20;1.27;;;;;;;22.89;50.23;100514.03;7309961;19;131026;-40
2022/03/11 05:17:02;;;;;;;76.93;6.87;;;;;;;22.82;50.36;100512.88;7309459;19;129146;-40
2022/03/11 05:19:27;;;;;;;26.15;2.72;;;;;;;22.74;51.04;100512.66;7307158;19;129230;-41
2022/03/11 05:21:52;;;;;;;23.02;2.53;;;;;;;22.72;50.60;100522.44;7310296;19;157372;-41
2022/03/11 05:24:18;;;;;;;28.73;2.63;;;;;;;22.79;50.60;100519.19;7308095;19;158458;-40
2022/03/11 05:26:43;;;;;;;28.15;2.95;;;;;;;22.89;50.11;100516.66;7306720;19;130009;-40
2022/03/11 05:29:08;;;;;;;36.63;3.53;;;;;;;22.86;50.70;100512.50;7301464;19;154046;-40
2022/03/11 05:31:33;;;;;;;18.93;2.07;;;;;;;23.02;50.18;100522.56;7308647;19;158419;-40
2022/03/11 05:33:59;;;;;;;57.13;5.55;;;;;;;23.10;49.57;100520.13;7309189;19;137057;-39
2022/03/11 05:36:24;;;;;;;48.70;4.67;;;;;;;23.16;49.34;100515.22;7306352;19;136954;-41
2022/03/11 05:38:50;;;;;;;29.35;2.70;;;;;;;23.27;49.54;100516.16;7305323;19;154782;-41
2022/03/11 05:41:16;;;;;;;28.70;2.83;;;;;;;23.37;49.55;100527.53;7307748;19;130758;-40
2022/03/11 05:43:41;;;;;;;23.83;2.65;;;;;;;23.39;49.50;100534.31;7309992;19;129350;-40
2022/03/11 05:46:07;;;;;;;19.20;2.33;;;;;;;23.47;48.85;100529.25;7308685;19;129068;-41
2022/03/11 05:48:32;;;;;;;21.17;2.22;;;;;;;23.55;48.30;100528.63;7307887;19;154366;-41
2022/03/11 05:50:58;;;;;;;42.28;3.78;;;;;;;23.57;48.44;100530.13;7307362;19;131439;-41
2022/03/11 05:53:23;;;;;;;26.95;2.85;;;;;;;23.51;48.53;100530.66;7305954;19;155898;-41
2022/03/11 05:55:48;;;;;;;46.58;4.45;;;;;;;23.42;49.30;100541.09;7302703;19;154710;-38
2022/03/11 05:58:14;;;;;;;17.58;1.98;;;;;;;23.36;49.14;100539.81;7307494;19;130224;-40
2022/03/11 06:00:39;;;;;;;21.02;2.22;;;;;;;23.25;49.44;100543.28;7307691;19;130103;-40
2022/03/11 06:03:04;;;;;;;56.28;5.18;;;;;;;23.13;49.75;100548.72;7304103;19;130435;-41
2022/03/11 06:05:30;;;;;;;52.60;5.00;;;;;;;22.97;50.40;100548.34;7294752;19;154715;-39
2022/03/11 06:07:55;;;;;;;56.88;5.05;;;;;;;22.86;50.77;100543.13;7297892;19;130248;-40
2022/03/11 06:10:20;;;;;;;65.82;5.93;;;;;;;22.78;50.51;100548.16;7293979;19;159063;-40
2022/03/11 06:12:46;;;;;;;58.08;5.30;;;;;;;22.70;51.02;100553.19;7297120;19;132621;-41
2022/03/11 06:15:11;;;;;;;35.60;3.53;;;;;;;22.67;51.20;100554.28;7295901;19;148662;-41
2022/03/11 06:17:37;;;;;;;39.88;4.20;;;;;;;22.71;51.15;100542.56;7297913;19;130119;-39
2022/03/11 06:20:04;;;;;;;38.27;3.63;;;;;;;22.82;50.46;100560.06;7302246;19;132399;-40
2022/03/11 06:22:29;;;;;;;25.25;2.53;;;;;;;22.92;50.41;100558.38;7307054;19;131299;-40
2022/03/11 06:24:55;;;;;;;45.97;4.60;;;;;;;23.01;50.25;100565.47;7301084;19;154496;-40
2022/03/11 06:27:24;;;;;;;51.23;4.60;;;;;;;23.06;50.07;100566.78;7305493;19;130978;-39
2022/03/11 06:29:49;;;;;;;36.88;3.80;;;;;;;23.16;50.23;100564.22;7307095;19;131550;-40
2022/03/11 06:32:14;;;;;;;51.17;4.60;;;;;;;23.25;49.77;100560.84;7306784;19;129463;-38
2022/03/11 06:34:40;;;;;;;42.70;4.18;;;;;;;23.35;49.47;100567.03;7303909;19;154456;-40
2022/03/11 06:37:05;;;;;;;56.33;5.22;;;;;;;23.43;49.41;100569.00;7304659;19;154072;-41
2022/03/11 06:39:30;;;;;;;70.97;6.50;;;;;;;23.50;48.59;100565.75;7300856;19;159164;-40
2022/03/11 06:41:55;;;;;;;29.58;2.97;;;;;;;23.60;48.52;100568.44;7309760;19;159352;-40
2022/03/11 06:44:21;;;;;;;51.25;4.97;;;;;;;23.69;48.50;100570.28;7309420;19;154617;-41
2022/03/11 06:46:46;;;;;;;45.40;4.45;;;;;;;23.61;48.49;100570.94;7306717;19;130057;-40
2022/03/11 06:49:11;;;;;;;56.53;5.25;;;;;;;23.55;49.08;100578.50;7302862;19;130634;-37
2022/03/11 06:51:37;;;;;;;49.15;4.63;;;;;;;23.45;48.97;100577.59;7304845;19;159513;-41
2022/03/11 06:54:04;;;;;;;46.85;4.80;;;;;;;23.35;48.87;100563.56;7311646;19;154737;-41
2022/03/11 06:56:30;;;;;;;42.70;4.10;;;;;;;23.19;49.55;100564.78;7302438;19;129907;-40
2022/03/11 06:58:55;;;;;;;55.13;5.20;;;;;;;23.10;49.75;100564.72;7303151;19;132191;-40
2022/03/11 07:01:20;;;;;;;24.83;2.60;;;;;;;22.97;49.83;100564.88;7314920;19;130324;-41
2022/03/11 07:03:46;;;;;;;57.35;5.25;;;;;;;22.79;50.53;100549.84;7294773;19;130032;-38
2022/03/11 07:06:11;;;;;;;42.30;4.13;;;;;;;22.82;51.07;100562.69;7293138;19;151821;-38
2022/03/11 07:08:36;;;;;;;46.83;4.35;;;;;;;;;;7303609;19;131784;-41
2022/03/11 07:11:02;;;;;;;51.58;4.90;;;;;;;;;;7302393;19;141529;-40
2022/03/11 07:13:28;;;;;;;43.90;4.20;;;;;;;22.58;51.78;100567.25;7306117;19;130566;-41
2022/03/11 07:15:53;;;;;;;49.97;4.90;;;;;;;22.46;51.84;100555.94;7302831;19;130862;-39
2022/03/11 07:18:18;;;;;;;41.60;4.27;;;;;;;22.41;52.19;100567.75;7304119;19;131030;-40
2022/03/11 07:20:43;;;;;;;55.28;5.10;;;;;;;22.37;51.71;100564.53;7303705;19;158594;-41
2022/03/11 07:23:09;;;;;;;36.60;3.50;;;;;;;22.35;51.59;100555.13;7308387;19;130977;-40
2022/03/11 07:25:36;;;;;;;47.47;4.60;;;;;;;22.49;51.79;100565.34;7308988;19;154645;-39
2022/03/11 07:28:01;;;;;;;42.70;4.18;;;;;;;22.62;51.70;100556.44;7304339;19;131697;-38
2022/03/11 07:30:26;;;;;;;19.75;2.17;;;;;;;22.75;51.35;100564.13;7312983;19;129584;-39
2022/03/11 07:32:53;;;;;;;34.13;3.55;;;;;;;22.85;50.83;100563.28;7302390;19;154380;-38
2022/03/11 07:35:18;;;;;;;63.28;5.82;;;;;;;22.95;49.98;100558.09;7303408;19;131474;-41
2022/03/11 07:37:43;;;;;;;56.33;5.32;;;;;;;23.12;49.93;100575.94;7302881;19;130557;-38
2022/03/11 07:40:11;;;;;;;55.20;5.13;;;;;;;23.25;49.83;100558.22;7304512;19;132190;-38
2022/03/11 07:42:38;;;;;;;21.05;2.22;;;;;;;23.46;49.43;100574.84;7308975;19;130340;-38
2022/03/11 07:45:04;;;;;;;41.92;4.20;;;;;;;23.55;48.56;100574.06;7310664;19;130136;-39
2022/03/11 07:47:29;;;;;;;31.40;3.22;;;;;;;23.61;49.06;100563.06;7308391;19;130692;-41
2022/03/11 07:49:54;;;;;;;25.35;2.45;;;;;;;23.63;48.53;100571.63;7302332;19;158712;-38
2022/03/11 07:52:22;;;;;;;31.17;3.47;;;;;;;23.56;48.90;100565.22;7313886;19;129119;-39
2022/03/11 07:54:47;;;;;;;25.40;2.60;;;;;;;23.46;49.04;100579.25;7312548;19;130390;-39
2022/03/11 07:57:13;;;;;;;29.65;2.97;;;;;;;23.34;49.37;100573.22;7311948;19;129124;-39
2022/03/11 07:59:40;;;;;;;28.90;2.70;;;;;;;23.23;49.72;100583.75;7312168;19;148765;-40
2022/03/11 08:02:06;;;;;;;35.05;3.25;;;;;;;23.13;49.88;100577.59;7312795;19;129891;-38
2022/03/11 08:04:32;;;;;;;40.47;3.40;;;;;;;22.94;49.93;100566.94;7311372;19;129901;-38
2022/03/11 08:07:01;;;;;;;36.17;3.42;;;;;;;22.89;50.56;100582.22;7312588;19;130216;-38
2022/03/11 08:09:28;;;;;;;32.28;3.08;;;;;;;22.77;51.07;100585.81;7308617;19;131511;-39
2022/03/11 08:11:53;;;;;;;9.32;1.52;;;;;;;22.65;51.42;100581.56;7314227;19;130205;-39
2022/03/11 08:14:19;;;;;;;25.92;2.45;;;;;;;22.47;51.72;100567.25;7311784;19;155280;-38
2022/03/11 08:16:44;;;;;;;28.87;2.87;;;;;;;22.47;52.13;100582.97;7310136;19;131061;-41
2022/03/11 08:19:09;;;;;;;30.98;2.92;;;;;;;22.43;51.69;100578.97;7310269;19;134250;-39
2022/03/11 08:21:35;;;;;;;30.95;3.08;;;;;;;22.47;51.87;100588.22;7313544;19;129463;-39
2022/03/11 08:24:00;;;;;;;28.15;2.70;;;;;;;22.51;51.43;100580.00;7312529;19;129484;-40
2022/03/11 08:26:27;;;;;;;38.43;3.47;;;;;;;22.60;51.22;100568.81;7309994;19;159231;-38
2022/03/11 08:28:53;;;;;;;;;;;;;;;22.69;51.10;100575.13;7311620;19;131275;-37
2022/03/11 08:31:18;;;;;;;21.92;2.28;;;;;;;22.85;51.18;100576.38;7313300;19;129103;-39
2022/03/11 08:33:43;;;;;;;38.63;3.88;;;;;;;22.91;50.45;100573.25;7311690;19;154241;-39
2022/03/11 08:36:09;;;;;;;25.33;2.38;;;;;;;23.05;50.14;100574.75;7309706;19;138677;-38
2022/03/11 08:38:34;;;;;;;16.77;1.67;;;;;;;23.19;50.17;100574.44;7312190;19;130242;-38
2022/03/11 08:41:02;;;;;;;30.58;2.83;;;;;;;23.32;49.54;100566.44;7312292;19;129133;-38
2022/03/11 08:43:27;;;;;;;17.48;1.85;;;;;;;23.33;49.61;100563.69;7312516;19;128942;-39
2022/03/11 08:45:53;;;;;;;27.90;2.60;;;;;;;23.44;49.30;100571.50;7311137;19;129500;-41
2022/03/11 08:48:18;;;;;;;19.50;2.30;;;;;;;23.33;49.03;100558.44;7308228;19;158347;-41
2022/03/11 08:50:43;;;;;;;32.83;3.30;;;;;;;23.32;49.61;100569.88;7310993;19;154578;-41
2022/03/11 08:53:09;;;;;;;31.27;2.92;;;;;;;23.23;49.30;100573.25;7311167;19;154510;-41
2022/03/11 08:55:36;;;;;;;24.45;2.45;;;;;;;23.13;50.35;100569.72;7310421;19;130362;-40
2022/03/11 08:58:01;;;;;;;;;;;;;;;23.03;50.56;100576.66;7310461;19;131618;-41
2022/03/11 09:00:27;;;;;;;22.70;2.20;;;;;;;22.96;50.79;100580.75;7311169;19;155256;-41
2022/03/11 09:02:52;;;;;;;23.48;2.53;;;;;;;22.80;50.78;100580.31;7312909;19;128935;-41
2022/03/11 09:05:20;;;;;;;36.80;3.67;;;;;;;22.61;50.84;100569.66;7308936;19;158451;-41
2022/03/11 09:07:45;;;;;;;28.15;2.72;;;;;;;22.59;51.58;100582.06;7311600;19;130436;-40
2022/03/11 09:10:12;;;;;;;31.15;3.10;;;;;;;22.49;51.47;100583.69;7306463;19;131109;-38
2022/03/11 09:12:39;;;;;;;19.15;2.30;;;;;;;22.33;51.68;100578.00;7309853;19;131250;-42
2022/03/11 09:15:05;;;;;;;;;;;;;;;22.33;52.00;100591.13;7306572;19;130305;-39
2022/03/11 09:17:31;;;;;;;12.05;1.40;;;;;;;22.30;52.16;100588.72;7308915;19;130822;-40
2022/03/11 09:19:58;;;;;;;42.65;3.67;;;;;;;22.32;52.10;100611.22;7304995;19;129592;-41
2022/03/11 09:22:24;;;;;;;17.65;1.92;;;;;;;22.37;52.65;100597.75;7306678;19;129421;-38
2022/03/11 09:24:50;;;;;;;26.02;2.92;;;;;;;22.46;52.14;100591.81;7309852;19;141153;-39
2022/03/11 09:27:18;;;;;;;18.40;2.10;;;;;;;22.57;52.01;100595.28;7309516;19;130284;-39
2022/03/11 09:29:43;;;;;;;25.77;2.75;;;;;;;22.71;51.49;100592.38;7311109;19;130591;-38
2022/03/11 09:32:08;;;;;;;23.23;2.30;;;;;;;22.86;51.23;100596.41;7311044;19;128894;-40
2022/03/11 09:34:35;;;;;;;15.55;2.10;;;;;;;23.03;50.99;100592.41;7308773;19;158368;-38
2022/03/11 09:37:00;;;;;;;36.28;3.35;;;;;;;23.15;49.90;100586.19;7305183;19;131051;-43
2022/03/11 09:39:27;;;;;;;16.75;2.15;;;;;;;23.22;50.21;100593.41;7306187;19;155192;-38
2022/03/11 09:41:52;;;;;;;31.00;3.10;;;;;;;23.21;49.89;100594.38;7303662;19;130885;-38
2022/03/11 09:44:19;;;;;;;32.35;2.85;;;;;;;23.20;49.87;100599.75;7308997;19;159209;-39
2022/03/11 09:46:45;;;;;;;44.53;4.22;;;;;;;23.12;49.86;100594.31;7303367;19;129501;-43
2022/03/11 09:49:15;;;;;;;28.33;2.70;;;;;;;23.01;50.23;100589.91;7308211;19;129233;-38
2022/03/11 09:51:41;;;;;;;19.35;2.00;;;;;;;22.92;50.50;100602.94;7308585;19;129660;-38
2022/03/11 09:54:08;;;;;;;23.55;2.50;;;;;;;22.79;50.52;100602.28;7307928;19;129151;-39
2022/03/11 09:56:39;;;;;;;33.80;3.95;;;;;;;22.63;48.07;100601.81;7304115;19;130018;-39
2022/03/11 09:59:05;;;;;;;32.63;3.75;;;;;;;22.58;49.85;100598.72;7306839;19;129604;-38
2022/03/11 10:01:31;;;;;;;32.72;3.05;;;;;;;22.51;50.13;100592.28;7317021;19;128976;-38
2022/03/11 10:03:56;;;;;;;29.58;2.97;;;;;;;22.45;51.12;100603.22;7311774;19;159098;-39
2022/03/11 10:06:43;;;;;;;34.23;3.67;;;;;;;22.35;51.01;100607.53;7314133;19;158638;-39
2022/03/11 10:09:17;;;;;;;23.05;2.63;;;;;;;22.28;51.55;100601.13;7310259;19;129178;-39
2022/03/11 10:11:46;;;;;;;44.47;4.53;;;;;;;22.22;52.57;100607.66;7313586;19;129261;-38
2022/03/11 10:14:12;;;;;;;29.83;3.03;;;;;;;22.14;52.52;100606.56;7314949;19;130564;-44
2022/03/11 10:16:37;;;;;;;36.63;3.87;;;;;;;22.08;52.04;100602.63;7311015;19;129806;-39
2022/03/11 10:19:05;;;;;;;34.15;3.65;;;;;;;22.02;52.60;100604.88;7312200;19;130690;-39
2022/03/11 10:21:31;;;;;;;21.30;2.50;;;;;;;22.00;52.88;100598.97;7312773;19;130109;-39
2022/03/11 10:23:57;;;;;;;28.85;2.83;;;;;;;21.93;52.61;100598.59;7311883;19;158533;-39
2022/03/11 10:26:34;;;;;;;37.80;3.63;;;;;;;21.90;53.89;100599.66;7314093;19;130361;-39
2022/03/11 10:29:01;;;;;;;52.80;4.50;;;;;;;21.87;53.37;100602.50;7309134;19;129036;-38
2022/03/11 10:31:35;;;;;;;33.40;3.25;;;;;;;21.84;54.43;100594.06;7316762;19;130504;-39
2022/03/11 10:34:20;;;;;;;31.55;3.10;;;;;;;21.83;54.47;100598.44;7313330;19;130762;-40
2022/03/11 10:37:06;;;;;;;40.65;4.03;;;;;;;21.78;54.56;100590.09;7312008;19;129714;-40
2022/03/11 10:39:39;;;;;;;19.15;2.15;;;;;;;21.78;54.91;100599.78;7306502;19;128943;-39
2022/03/11 10:42:17;;;;;;;31.15;3.42;;;;;;;21.76;55.59;100592.03;7312452;19;129204;-38
2022/03/11 10:44:59;;;;;;;14.85;2.10;;;;;;;21.77;55.15;100588.47;7309684;19;130295;-39
2022/03/11 10:47:30;;;;;;;30.17;2.95;;;;;;;21.76;55.15;100597.28;7309885;19;130932;-38
2022/03/11 10:49:58;;;;;;;27.90;2.83;;;;;;;21.75;55.94;100595.56;7310177;19;129027;-39
2022/03/11 10:52:34;;;;;;;20.33;2.45;;;;;;;21.74;55.45;100593.91;7314831;19;129662;-38
2022/03/11 10:55:01;;;;;;;30.35;3.03;;;;;;;21.78;55.34;100594.53;7307464;19;131232;-40
2022/03/11 10:57:37;;;;;;;29.15;3.10;;;;;;;21.75;56.26;100590.31;7309756;19;130527;-38
2022/03/11 11:00:20;;;;;;;27.98;2.70;;;;;;;21.71;56.22;100588.91;7311320;19;129294;-39
2022/03/11 11:02:47;;;;;;;25.13;2.50;;;;;;;21.77;55.11;100583.22;7311591;19;128864;-38
2022/03/11 11:05:13;;;;;;;41.10;3.78;;;;;;;21.84;55.33;100575.72;7308043;19;129721;-43
2022/03/11 11:07:41;;;;;;;12.50;1.67;;;;;;;21.83;55.27;100577.50;7313764;19;130693;-41